sensor_id;sensor_type;location;lat;lon;timestamp;P1;durP1;ratioP1;P2;durP2;ratioP2
13032;SDS011;6583;42.632;23.298;2024-03-25T00:00:48;0.20;;;0.20;;
13032;SDS011;6583;42.632;23.298;2024-03-25T00:03:15;0.20;;;0.20;;
13032;SDS011;6583;42.632;23.298;2024-03-25T00:05:42;0.20;;;0.20;;
13032;SDS011;6583;42.632;23.298;2024-03-25T00:08:08;0.20;;;0.20;;
13032;SDS011;6583;42.632;23.298;2024-03-25T00:10:34;0.20;;;0.20;;
13032;SDS011;6583;42.632;23.298;2024-03-25T00:13:02;0.20;;;0.20;;
13032;SDS011;6583;42.632;23.298;2024-03-25T00:15:29;0.43;;;0.20;;
13032;SDS011;6583;42.632;23.298;2024-03-25T00:17:55;0.20;;;0.20;;
13032;SDS011;6583;42.632;23.298;2024-03-25T00:20:23;0.20;;;0.20;;
13032;SDS011;6583;42.632;23.298;2024-03-25T00:22:49;0.53;;;0.27;;
13032;SDS011;6583;42.632;23.298;2024-03-25T00:25:15;0.20;;;0.20;;
13032;SDS011;6583;42.632;23.298;2024-03-25T00:27:42;1.90;;;0.20;;
13032;SDS011;6583;42.632;23.298;2024-03-25T00:30:09;0.27;;;0.20;;
13032;SDS011;6583;42.632;23.298;2024-03-25T00:32:35;0.37;;;0.20;;
13032;SDS011;6583;42.632;23.298;2024-03-25T00:35:02;0.20;;;0.20;;
13032;SDS011;6583;42.632;23.298;2024-03-25T00:37:33;0.20;;;0.20;;
13032;SDS011;6583;42.632;23.298;2024-03-25T00:39:59;0.20;;;0.20;;
13032;SDS011;6583;42.632;23.298;2024-03-25T00:42:25;0.30;;;0.30;;
13032;SDS011;6583;42.632;23.298;2024-03-25T00:44:52;0.20;;;0.20;;
13032;SDS011;6583;42.632;23.298;2024-03-25T00:47:17;0.30;;;0.30;;
13032;SDS011;6583;42.632;23.298;2024-03-25T00:49:44;0.40;;;0.33;;
13032;SDS011;6583;42.632;23.298;2024-03-25T00:52:09;0.30;;;0.30;;
13032;SDS011;6583;42.632;23.298;2024-03-25T00:54:38;0.50;;;0.37;;
13032;SDS011;6583;42.632;23.298;2024-03-25T00:57:04;0.30;;;0.30;;
13032;SDS011;6583;42.632;23.298;2024-03-25T00:59:30;0.30;;;0.30;;
13032;SDS011;6583;42.632;23.298;2024-03-25T01:01:56;0.37;;;0.30;;
13032;SDS011;6583;42.632;23.298;2024-03-25T01:04:23;0.20;;;0.20;;
13032;SDS011;6583;42.632;23.298;2024-03-25T01:06:48;0.20;;;0.20;;
13032;SDS011;6583;42.632;23.298;2024-03-25T01:09:15;1.47;;;0.30;;
13032;SDS011;6583;42.632;23.298;2024-03-25T01:11:42;0.30;;;0.30;;
13032;SDS011;6583;42.632;23.298;2024-03-25T01:14:09;0.20;;;0.20;;
13032;SDS011;6583;42.632;23.298;2024-03-25T01:16:34;0.30;;;0.30;;
13032;SDS011;6583;42.632;23.298;2024-03-25T01:19:01;0.67;;;0.30;;
13032;SDS011;6583;42.632;23.298;2024-03-25T01:21:27;0.30;;;0.30;;
13032;SDS011;6583;42.632;23.298;2024-03-25T01:23:55;0.73;;;0.50;;
13032;SDS011;6583;42.632;23.298;2024-03-25T01:26:20;0.40;;;0.30;;
13032;SDS011;6583;42.632;23.298;2024-03-25T01:28:49;0.40;;;0.40;;
13032;SDS011;6583;42.632;23.298;2024-03-25T01:31:14;0.40;;;0.40;;
13032;SDS011;6583;42.632;23.298;2024-03-25T01:33:41;0.40;;;0.40;;
13032;SDS011;6583;42.632;23.298;2024-03-25T01:36:07;0.50;;;0.40;;
13032;SDS011;6583;42.632;23.298;2024-03-25T01:38:36;0.60;;;0.40;;
13032;SDS011;6583;42.632;23.298;2024-03-25T01:41:08;0.40;;;0.40;;
13032;SDS011;6583;42.632;23.298;2024-03-25T01:43:35;0.87;;;0.57;;
13032;SDS011;6583;42.632;23.298;2024-03-25T01:46:02;0.40;;;0.40;;
13032;SDS011;6583;42.632;23.298;2024-03-25T01:48:29;0.50;;;0.40;;
13032;SDS011;6583;42.632;23.298;2024-03-25T01:50:55;0.50;;;0.40;;
13032;SDS011;6583;42.632;23.298;2024-03-25T01:53:23;0.47;;;0.47;;
13032;SDS011;6583;42.632;23.298;2024-03-25T01:55:49;0.40;;;0.40;;
13032;SDS011;6583;42.632;23.298;2024-03-25T01:58:20;0.70;;;0.70;;
13032;SDS011;6583;42.632;23.298;2024-03-25T02:00:46;0.60;;;0.40;;
13032;SDS011;6583;42.632;23.298;2024-03-25T02:03:15;0.40;;;0.40;;
13032;SDS011;6583;42.632;23.298;2024-03-25T02:05:41;0.70;;;0.40;;
13032;SDS011;6583;42.632;23.298;2024-03-25T02:08:08;0.37;;;0.37;;
13032;SDS011;6583;42.632;23.298;2024-03-25T02:10:34;0.30;;;0.30;;
13032;SDS011;6583;42.632;23.298;2024-03-25T02:13:01;0.40;;;0.40;;
13032;SDS011;6583;42.632;23.298;2024-03-25T02:15:27;0.97;;;0.50;;
13032;SDS011;6583;42.632;23.298;2024-03-25T02:17:54;0.70;;;0.50;;
13032;SDS011;6583;42.632;23.298;2024-03-25T02:20:21;0.50;;;0.50;;
13032;SDS011;6583;42.632;23.298;2024-03-25T02:22:48;0.63;;;0.50;;
13032;SDS011;6583;42.632;23.298;2024-03-25T02:25:14;0.50;;;0.50;;
13032;SDS011;6583;42.632;23.298;2024-03-25T02:27:44;0.60;;;0.60;;
13032;SDS011;6583;42.632;23.298;2024-03-25T02:30:10;0.50;;;0.50;;
13032;SDS011;6583;42.632;23.298;2024-03-25T02:32:39;0.77;;;0.60;;
13032;SDS011;6583;42.632;23.298;2024-03-25T02:35:06;0.70;;;0.60;;
13032;SDS011;6583;42.632;23.298;2024-03-25T02:37:36;0.40;;;0.40;;
13032;SDS011;6583;42.632;23.298;2024-03-25T02:40:03;0.50;;;0.50;;
13032;SDS011;6583;42.632;23.298;2024-03-25T02:42:32;1.47;;;0.93;;
13032;SDS011;6583;42.632;23.298;2024-03-25T02:44:59;0.50;;;0.47;;
13032;SDS011;6583;42.632;23.298;2024-03-25T02:47:26;0.53;;;0.50;;
13032;SDS011;6583;42.632;23.298;2024-03-25T02:49:52;1.33;;;0.50;;
13032;SDS011;6583;42.632;23.298;2024-03-25T02:52:18;0.60;;;0.60;;
13032;SDS011;6583;42.632;23.298;2024-03-25T02:54:45;0.40;;;0.40;;
13032;SDS011;6583;42.632;23.298;2024-03-25T02:57:11;0.50;;;0.50;;
13032;SDS011;6583;42.632;23.298;2024-03-25T02:59:37;0.90;;;0.50;;
13032;SDS011;6583;42.632;23.298;2024-03-25T03:02:05;0.63;;;0.63;;
13032;SDS011;6583;42.632;23.298;2024-03-25T03:04:31;1.37;;;0.73;;
13032;SDS011;6583;42.632;23.298;2024-03-25T03:06:58;0.80;;;0.80;;
13032;SDS011;6583;42.632;23.298;2024-03-25T03:09:23;0.70;;;0.70;;
13032;SDS011;6583;42.632;23.298;2024-03-25T03:11:50;0.70;;;0.70;;
13032;SDS011;6583;42.632;23.298;2024-03-25T03:14:16;0.90;;;0.90;;
13032;SDS011;6583;42.632;23.298;2024-03-25T03:16:43;0.80;;;0.80;;
13032;SDS011;6583;42.632;23.298;2024-03-25T03:19:10;0.90;;;0.90;;
13032;SDS011;6583;42.632;23.298;2024-03-25T03:21:36;2.67;;;2.03;;
13032;SDS011;6583;42.632;23.298;2024-03-25T03:24:02;2.27;;;1.90;;
13032;SDS011;6583;42.632;23.298;2024-03-25T03:26:29;3.43;;;2.93;;
13032;SDS011;6583;42.632;23.298;2024-03-25T03:28:55;4.27;;;2.90;;
13032;SDS011;6583;42.632;23.298;2024-03-25T03:31:21;4.53;;;3.30;;
13032;SDS011;6583;42.632;23.298;2024-03-25T03:33:47;4.50;;;3.40;;
13032;SDS011;6583;42.632;23.298;2024-03-25T03:36:17;4.23;;;3.43;;
13032;SDS011;6583;42.632;23.298;2024-03-25T03:38:44;4.00;;;2.90;;
13032;SDS011;6583;42.632;23.298;2024-03-25T03:41:10;3.60;;;2.87;;
13032;SDS011;6583;42.632;23.298;2024-03-25T03:43:36;2.90;;;2.10;;
13032;SDS011;6583;42.632;23.298;2024-03-25T03:46:03;3.03;;;2.20;;
13032;SDS011;6583;42.632;23.298;2024-03-25T03:48:30;5.03;;;2.80;;
13032;SDS011;6583;42.632;23.298;2024-03-25T03:50:56;3.53;;;2.70;;
13032;SDS011;6583;42.632;23.298;2024-03-25T03:53:24;3.83;;;3.20;;
13032;SDS011;6583;42.632;23.298;2024-03-25T03:55:53;4.33;;;3.20;;
13032;SDS011;6583;42.632;23.298;2024-03-25T03:58:19;3.93;;;3.40;;
13032;SDS011;6583;42.632;23.298;2024-03-25T04:00:46;4.10;;;3.70;;
13032;SDS011;6583;42.632;23.298;2024-03-25T04:03:12;5.87;;;3.87;;
13032;SDS011;6583;42.632;23.298;2024-03-25T04:05:38;6.23;;;4.40;;
13032;SDS011;6583;42.632;23.298;2024-03-25T04:08:04;6.30;;;4.47;;
13032;SDS011;6583;42.632;23.298;2024-03-25T04:10:33;5.43;;;4.20;;
13032;SDS011;6583;42.632;23.298;2024-03-25T04:12:59;5.67;;;4.13;;
13032;SDS011;6583;42.632;23.298;2024-03-25T04:15:25;5.80;;;4.43;;
13032;SDS011;6583;42.632;23.298;2024-03-25T04:17:51;7.00;;;5.30;;
13032;SDS011;6583;42.632;23.298;2024-03-25T04:20:18;7.03;;;4.97;;
13032;SDS011;6583;42.632;23.298;2024-03-25T04:22:44;6.03;;;4.67;;
13032;SDS011;6583;42.632;23.298;2024-03-25T04:25:12;7.30;;;5.07;;
13032;SDS011;6583;42.632;23.298;2024-03-25T04:27:40;8.43;;;5.83;;
13032;SDS011;6583;42.632;23.298;2024-03-25T04:30:08;7.83;;;5.63;;
13032;SDS011;6583;42.632;23.298;2024-03-25T04:32:34;7.73;;;5.27;;
13032;SDS011;6583;42.632;23.298;2024-03-25T04:35:01;9.17;;;6.00;;
13032;SDS011;6583;42.632;23.298;2024-03-25T04:37:31;7.67;;;5.80;;
13032;SDS011;6583;42.632;23.298;2024-03-25T04:39:57;10.73;;;5.60;;
13032;SDS011;6583;42.632;23.298;2024-03-25T04:42:23;7.93;;;5.67;;
13032;SDS011;6583;42.632;23.298;2024-03-25T04:44:50;9.30;;;6.00;;
13032;SDS011;6583;42.632;23.298;2024-03-25T04:47:16;9.67;;;6.30;;
13032;SDS011;6583;42.632;23.298;2024-03-25T04:49:42;9.43;;;5.97;;
13032;SDS011;6583;42.632;23.298;2024-03-25T04:52:08;8.57;;;5.90;;
13032;SDS011;6583;42.632;23.298;2024-03-25T04:54:34;8.90;;;6.57;;
13032;SDS011;6583;42.632;23.298;2024-03-25T04:57:00;8.23;;;6.17;;
13032;SDS011;6583;42.632;23.298;2024-03-25T04:59:26;8.43;;;5.17;;
13032;SDS011;6583;42.632;23.298;2024-03-25T05:01:53;9.53;;;6.23;;
13032;SDS011;6583;42.632;23.298;2024-03-25T05:04:18;9.73;;;6.10;;
13032;SDS011;6583;42.632;23.298;2024-03-25T05:06:44;8.40;;;6.00;;
13032;SDS011;6583;42.632;23.298;2024-03-25T05:09:10;8.03;;;5.10;;
13032;SDS011;6583;42.632;23.298;2024-03-25T05:11:35;9.33;;;6.30;;
13032;SDS011;6583;42.632;23.298;2024-03-25T05:14:01;11.20;;;6.70;;
13032;SDS011;6583;42.632;23.298;2024-03-25T05:16:27;8.53;;;5.70;;
13032;SDS011;6583;42.632;23.298;2024-03-25T05:18:54;10.00;;;6.87;;
13032;SDS011;6583;42.632;23.298;2024-03-25T05:21:20;11.93;;;7.13;;
13032;SDS011;6583;42.632;23.298;2024-03-25T05:23:45;10.80;;;6.73;;
13032;SDS011;6583;42.632;23.298;2024-03-25T05:26:11;10.07;;;7.17;;
13032;SDS011;6583;42.632;23.298;2024-03-25T05:28:37;9.40;;;6.30;;
13032;SDS011;6583;42.632;23.298;2024-03-25T05:31:06;9.83;;;6.83;;
13032;SDS011;6583;42.632;23.298;2024-03-25T05:33:31;11.03;;;7.23;;
13032;SDS011;6583;42.632;23.298;2024-03-25T05:35:59;8.83;;;6.07;;
13032;SDS011;6583;42.632;23.298;2024-03-25T05:38:26;10.23;;;6.67;;
13032;SDS011;6583;42.632;23.298;2024-03-25T05:40:52;9.17;;;6.50;;
13032;SDS011;6583;42.632;23.298;2024-03-25T05:43:17;8.97;;;6.47;;
13032;SDS011;6583;42.632;23.298;2024-03-25T05:45:49;10.80;;;6.60;;
13032;SDS011;6583;42.632;23.298;2024-03-25T05:48:15;9.10;;;5.67;;
13032;SDS011;6583;42.632;23.298;2024-03-25T05:50:41;9.50;;;6.30;;
13032;SDS011;6583;42.632;23.298;2024-03-25T05:53:08;8.27;;;6.10;;
13032;SDS011;6583;42.632;23.298;2024-03-25T05:55:34;10.10;;;6.73;;
13032;SDS011;6583;42.632;23.298;2024-03-25T05:58:00;9.57;;;6.93;;
13032;SDS011;6583;42.632;23.298;2024-03-25T06:00:26;8.53;;;5.70;;
13032;SDS011;6583;42.632;23.298;2024-03-25T06:02:51;11.17;;;7.13;;
13032;SDS011;6583;42.632;23.298;2024-03-25T06:05:18;11.23;;;7.10;;
13032;SDS011;6583;42.632;23.298;2024-03-25T06:07:43;9.73;;;6.87;;
13032;SDS011;6583;42.632;23.298;2024-03-25T06:10:10;9.00;;;6.70;;
13032;SDS011;6583;42.632;23.298;2024-03-25T06:12:36;8.63;;;6.60;;
13032;SDS011;6583;42.632;23.298;2024-03-25T06:15:02;8.90;;;6.37;;
13032;SDS011;6583;42.632;23.298;2024-03-25T06:17:28;8.97;;;6.07;;
13032;SDS011;6583;42.632;23.298;2024-03-25T06:19:54;9.30;;;7.23;;
13032;SDS011;6583;42.632;23.298;2024-03-25T06:22:20;9.00;;;6.67;;
13032;SDS011;6583;42.632;23.298;2024-03-25T06:24:45;8.87;;;6.40;;
13032;SDS011;6583;42.632;23.298;2024-03-25T06:27:12;8.20;;;5.73;;
13032;SDS011;6583;42.632;23.298;2024-03-25T06:29:38;9.43;;;6.37;;
13032;SDS011;6583;42.632;23.298;2024-03-25T06:32:04;9.00;;;6.87;;
13032;SDS011;6583;42.632;23.298;2024-03-25T06:34:48;8.73;;;5.93;;
13032;SDS011;6583;42.632;23.298;2024-03-25T06:37:14;7.57;;;6.23;;
13032;SDS011;6583;42.632;23.298;2024-03-25T06:39:40;7.80;;;6.40;;
13032;SDS011;6583;42.632;23.298;2024-03-25T06:42:05;8.60;;;6.37;;
13032;SDS011;6583;42.632;23.298;2024-03-25T06:44:32;8.73;;;6.33;;
13032;SDS011;6583;42.632;23.298;2024-03-25T06:46:58;9.37;;;6.43;;
13032;SDS011;6583;42.632;23.298;2024-03-25T06:49:24;5.73;;;4.40;;
13032;SDS011;6583;42.632;23.298;2024-03-25T06:51:49;8.77;;;6.40;;
13032;SDS011;6583;42.632;23.298;2024-03-25T06:54:15;9.43;;;6.40;;
13032;SDS011;6583;42.632;23.298;2024-03-25T06:56:41;8.27;;;6.13;;
13032;SDS011;6583;42.632;23.298;2024-03-25T06:59:07;9.63;;;6.80;;
13032;SDS011;6583;42.632;23.298;2024-03-25T07:01:34;8.20;;;6.70;;
13032;SDS011;6583;42.632;23.298;2024-03-25T07:03:59;7.87;;;6.40;;
13032;SDS011;6583;42.632;23.298;2024-03-25T07:06:25;6.73;;;5.40;;
13032;SDS011;6583;42.632;23.298;2024-03-25T07:08:51;6.50;;;5.00;;
13032;SDS011;6583;42.632;23.298;2024-03-25T07:11:17;8.33;;;6.03;;
13032;SDS011;6583;42.632;23.298;2024-03-25T07:13:43;7.17;;;5.60;;
13032;SDS011;6583;42.632;23.298;2024-03-25T07:16:08;6.80;;;6.00;;
13032;SDS011;6583;42.632;23.298;2024-03-25T07:18:35;6.80;;;5.33;;
13032;SDS011;6583;42.632;23.298;2024-03-25T07:21:01;6.07;;;5.23;;
13032;SDS011;6583;42.632;23.298;2024-03-25T07:23:27;7.10;;;5.63;;
13032;SDS011;6583;42.632;23.298;2024-03-25T07:25:53;6.63;;;5.00;;
13032;SDS011;6583;42.632;23.298;2024-03-25T07:28:19;6.63;;;5.20;;
13032;SDS011;6583;42.632;23.298;2024-03-25T07:30:44;7.17;;;5.80;;
13032;SDS011;6583;42.632;23.298;2024-03-25T07:33:10;6.13;;;5.30;;
13032;SDS011;6583;42.632;23.298;2024-03-25T07:35:37;6.97;;;5.73;;
13032;SDS011;6583;42.632;23.298;2024-03-25T07:38:03;7.00;;;5.07;;
13032;SDS011;6583;42.632;23.298;2024-03-25T07:40:29;5.70;;;5.10;;
13032;SDS011;6583;42.632;23.298;2024-03-25T07:42:54;6.30;;;4.87;;
13032;SDS011;6583;42.632;23.298;2024-03-25T07:45:20;5.67;;;4.80;;
13032;SDS011;6583;42.632;23.298;2024-03-25T07:47:46;6.77;;;5.83;;
13032;SDS011;6583;42.632;23.298;2024-03-25T07:50:12;6.70;;;5.97;;
13032;SDS011;6583;42.632;23.298;2024-03-25T07:52:39;6.57;;;5.30;;
13032;SDS011;6583;42.632;23.298;2024-03-25T07:55:05;6.53;;;4.80;;
13032;SDS011;6583;42.632;23.298;2024-03-25T07:57:31;6.27;;;5.00;;
13032;SDS011;6583;42.632;23.298;2024-03-25T07:59:57;6.57;;;5.87;;
13032;SDS011;6583;42.632;23.298;2024-03-25T08:02:22;6.77;;;5.50;;
13032;SDS011;6583;42.632;23.298;2024-03-25T08:04:48;6.00;;;5.40;;
13032;SDS011;6583;42.632;23.298;2024-03-25T08:07:14;6.27;;;5.67;;
13032;SDS011;6583;42.632;23.298;2024-03-25T08:09:41;6.33;;;5.37;;
13032;SDS011;6583;42.632;23.298;2024-03-25T08:12:07;6.47;;;5.60;;
13032;SDS011;6583;42.632;23.298;2024-03-25T08:14:33;6.23;;;5.30;;
13032;SDS011;6583;42.632;23.298;2024-03-25T08:16:58;6.33;;;5.20;;
13032;SDS011;6583;42.632;23.298;2024-03-25T08:19:24;6.23;;;5.63;;
13032;SDS011;6583;42.632;23.298;2024-03-25T08:21:50;6.80;;;5.60;;
13032;SDS011;6583;42.632;23.298;2024-03-25T08:24:16;6.77;;;5.57;;
13032;SDS011;6583;42.632;23.298;2024-03-25T08:26:43;6.40;;;5.80;;
13032;SDS011;6583;42.632;23.298;2024-03-25T08:29:08;5.57;;;4.90;;
13032;SDS011;6583;42.632;23.298;2024-03-25T08:31:34;6.37;;;5.43;;
13032;SDS011;6583;42.632;23.298;2024-03-25T08:34:00;6.20;;;5.57;;
13032;SDS011;6583;42.632;23.298;2024-03-25T08:36:26;7.20;;;6.10;;
13032;SDS011;6583;42.632;23.298;2024-03-25T08:38:51;5.63;;;4.97;;
13032;SDS011;6583;42.632;23.298;2024-03-25T08:41:17;6.23;;;5.63;;
13032;SDS011;6583;42.632;23.298;2024-03-25T08:43:44;5.90;;;4.93;;
13032;SDS011;6583;42.632;23.298;2024-03-25T08:46:10;6.63;;;5.60;;
13032;SDS011;6583;42.632;23.298;2024-03-25T08:48:35;6.60;;;5.47;;
13032;SDS011;6583;42.632;23.298;2024-03-25T08:51:01;6.47;;;5.80;;
13032;SDS011;6583;42.632;23.298;2024-03-25T08:53:27;4.80;;;4.30;;
13032;SDS011;6583;42.632;23.298;2024-03-25T08:55:53;6.93;;;5.50;;
13032;SDS011;6583;42.632;23.298;2024-03-25T08:58:18;6.23;;;5.40;;
13032;SDS011;6583;42.632;23.298;2024-03-25T09:00:45;6.07;;;5.47;;
13032;SDS011;6583;42.632;23.298;2024-03-25T09:03:11;6.60;;;5.67;;
13032;SDS011;6583;42.632;23.298;2024-03-25T09:05:37;6.17;;;5.57;;
13032;SDS011;6583;42.632;23.298;2024-03-25T09:08:03;6.00;;;5.40;;
13032;SDS011;6583;42.632;23.298;2024-03-25T09:10:29;6.73;;;5.47;;
13032;SDS011;6583;42.632;23.298;2024-03-25T09:13:13;6.63;;;5.90;;
13032;SDS011;6583;42.632;23.298;2024-03-25T09:15:39;7.20;;;6.23;;
13032;SDS011;6583;42.632;23.298;2024-03-25T09:18:06;6.97;;;5.17;;
13032;SDS011;6583;42.632;23.298;2024-03-25T09:20:32;6.70;;;5.93;;
13032;SDS011;6583;42.632;23.298;2024-03-25T09:22:57;7.53;;;5.83;;
13032;SDS011;6583;42.632;23.298;2024-03-25T09:25:23;6.10;;;5.50;;
13032;SDS011;6583;42.632;23.298;2024-03-25T09:27:49;6.53;;;5.87;;
13032;SDS011;6583;42.632;23.298;2024-03-25T09:30:15;6.17;;;5.57;;
13032;SDS011;6583;42.632;23.298;2024-03-25T09:32:42;6.53;;;5.80;;
13032;SDS011;6583;42.632;23.298;2024-03-25T09:35:09;6.50;;;5.80;;
13032;SDS011;6583;42.632;23.298;2024-03-25T09:37:35;6.77;;;5.63;;
13032;SDS011;6583;42.632;23.298;2024-03-25T09:40:01;6.07;;;5.20;;
13032;SDS011;6583;42.632;23.298;2024-03-25T09:42:27;5.70;;;5.13;;
13032;SDS011;6583;42.632;23.298;2024-03-25T09:45:11;7.20;;;5.90;;
13032;SDS011;6583;42.632;23.298;2024-03-25T09:47:40;6.07;;;5.47;;
13032;SDS011;6583;42.632;23.298;2024-03-25T09:50:12;6.47;;;5.67;;
13032;SDS011;6583;42.632;23.298;2024-03-25T09:52:38;6.80;;;5.40;;
13032;SDS011;6583;42.632;23.298;2024-03-25T09:55:04;6.07;;;5.47;;
13032;SDS011;6583;42.632;23.298;2024-03-25T09:57:31;8.20;;;5.57;;
13032;SDS011;6583;42.632;23.298;2024-03-25T09:59:57;5.50;;;5.00;;
13032;SDS011;6583;42.632;23.298;2024-03-25T10:02:22;6.70;;;6.10;;
13032;SDS011;6583;42.632;23.298;2024-03-25T10:04:49;6.33;;;5.73;;
13032;SDS011;6583;42.632;23.298;2024-03-25T10:07:22;6.17;;;5.57;;
13032;SDS011;6583;42.632;23.298;2024-03-25T10:09:48;6.30;;;5.53;;
13032;SDS011;6583;42.632;23.298;2024-03-25T10:12:14;5.97;;;5.37;;
13032;SDS011;6583;42.632;23.298;2024-03-25T10:14:40;5.60;;;5.00;;
13032;SDS011;6583;42.632;23.298;2024-03-25T10:17:05;5.53;;;5.03;;
13032;SDS011;6583;42.632;23.298;2024-03-25T10:19:31;5.33;;;4.30;;
13032;SDS011;6583;42.632;23.298;2024-03-25T10:22:01;4.80;;;4.40;;
13032;SDS011;6583;42.632;23.298;2024-03-25T10:24:37;5.27;;;4.77;;
13032;SDS011;6583;42.632;23.298;2024-03-25T10:27:03;5.17;;;4.40;;
13032;SDS011;6583;42.632;23.298;2024-03-25T10:29:29;4.70;;;4.30;;
13032;SDS011;6583;42.632;23.298;2024-03-25T10:31:58;5.03;;;4.53;;
13032;SDS011;6583;42.632;23.298;2024-03-25T10:34:24;4.97;;;4.50;;
13032;SDS011;6583;42.632;23.298;2024-03-25T10:36:50;4.77;;;4.37;;
13032;SDS011;6583;42.632;23.298;2024-03-25T10:39:19;5.03;;;4.60;;
13032;SDS011;6583;42.632;23.298;2024-03-25T10:41:50;5.13;;;4.17;;
13032;SDS011;6583;42.632;23.298;2024-03-25T10:44:16;5.40;;;4.10;;
13032;SDS011;6583;42.632;23.298;2024-03-25T10:46:42;3.80;;;3.50;;
13032;SDS011;6583;42.632;23.298;2024-03-25T10:49:10;4.33;;;3.60;;
13032;SDS011;6583;42.632;23.298;2024-03-25T10:51:41;4.07;;;3.67;;
13032;SDS011;6583;42.632;23.298;2024-03-25T10:54:09;4.50;;;4.10;;
13032;SDS011;6583;42.632;23.298;2024-03-25T10:56:37;3.73;;;3.37;;
13032;SDS011;6583;42.632;23.298;2024-03-25T10:59:05;3.93;;;3.53;;
13032;SDS011;6583;42.632;23.298;2024-03-25T11:01:32;4.57;;;4.17;;
13032;SDS011;6583;42.632;23.298;2024-03-25T11:03:58;4.37;;;3.97;;
13032;SDS011;6583;42.632;23.298;2024-03-25T11:06:25;3.80;;;3.27;;
13032;SDS011;6583;42.632;23.298;2024-03-25T11:08:55;4.33;;;3.37;;
13032;SDS011;6583;42.632;23.298;2024-03-25T11:11:21;4.27;;;3.87;;
13032;SDS011;6583;42.632;23.298;2024-03-25T11:13:47;4.20;;;3.80;;
13032;SDS011;6583;42.632;23.298;2024-03-25T11:16:25;4.30;;;3.90;;
13032;SDS011;6583;42.632;23.298;2024-03-25T11:18:53;4.50;;;4.10;;
13032;SDS011;6583;42.632;23.298;2024-03-25T11:21:24;4.37;;;3.97;;
13032;SDS011;6583;42.632;23.298;2024-03-25T11:23:50;3.60;;;3.30;;
13032;SDS011;6583;42.632;23.298;2024-03-25T11:26:18;3.90;;;3.50;;
13032;SDS011;6583;42.632;23.298;2024-03-25T11:28:44;3.23;;;3.00;;
13032;SDS011;6583;42.632;23.298;2024-03-25T11:31:10;3.20;;;2.90;;
13032;SDS011;6583;42.632;23.298;2024-03-25T11:33:38;3.40;;;3.10;;
13032;SDS011;6583;42.632;23.298;2024-03-25T11:36:04;5.30;;;4.10;;
13032;SDS011;6583;42.632;23.298;2024-03-25T11:38:30;3.97;;;3.57;;
13032;SDS011;6583;42.632;23.298;2024-03-25T11:40:56;3.60;;;3.30;;
13032;SDS011;6583;42.632;23.298;2024-03-25T11:43:22;4.17;;;3.40;;
13032;SDS011;6583;42.632;23.298;2024-03-25T11:45:48;2.67;;;2.47;;
13032;SDS011;6583;42.632;23.298;2024-03-25T11:48:15;3.03;;;2.73;;
13032;SDS011;6583;42.632;23.298;2024-03-25T11:50:44;3.03;;;2.77;;
13032;SDS011;6583;42.632;23.298;2024-03-25T11:53:11;3.20;;;2.90;;
13032;SDS011;6583;42.632;23.298;2024-03-25T11:55:38;2.90;;;2.70;;
13032;SDS011;6583;42.632;23.298;2024-03-25T11:58:05;3.30;;;3.00;;
13032;SDS011;6583;42.632;23.298;2024-03-25T12:00:30;3.37;;;3.03;;
13032;SDS011;6583;42.632;23.298;2024-03-25T12:02:56;3.40;;;3.10;;
13032;SDS011;6583;42.632;23.298;2024-03-25T12:05:22;4.10;;;3.70;;
13032;SDS011;6583;42.632;23.298;2024-03-25T12:07:49;3.07;;;2.77;;
13032;SDS011;6583;42.632;23.298;2024-03-25T12:10:15;3.80;;;3.40;;
13032;SDS011;6583;42.632;23.298;2024-03-25T12:13:07;3.80;;;3.50;;
13032;SDS011;6583;42.632;23.298;2024-03-25T12:15:33;3.40;;;3.10;;
13032;SDS011;6583;42.632;23.298;2024-03-25T12:17:59;4.10;;;3.00;;
13032;SDS011;6583;42.632;23.298;2024-03-25T12:20:25;2.60;;;2.40;;
13032;SDS011;6583;42.632;23.298;2024-03-25T12:22:53;3.30;;;3.00;;
13032;SDS011;6583;42.632;23.298;2024-03-25T12:25:18;3.37;;;3.07;;
13032;SDS011;6583;42.632;23.298;2024-03-25T12:27:45;3.80;;;3.10;;
13032;SDS011;6583;42.632;23.298;2024-03-25T12:30:12;3.50;;;2.77;;
13032;SDS011;6583;42.632;23.298;2024-03-25T12:32:38;3.57;;;3.07;;
13032;SDS011;6583;42.632;23.298;2024-03-25T12:35:06;3.97;;;2.87;;
13032;SDS011;6583;42.632;23.298;2024-03-25T12:37:33;2.93;;;2.70;;
13032;SDS011;6583;42.632;23.298;2024-03-25T12:40:00;3.10;;;2.80;;
13032;SDS011;6583;42.632;23.298;2024-03-25T12:42:26;3.00;;;2.70;;
13032;SDS011;6583;42.632;23.298;2024-03-25T12:44:52;3.20;;;2.90;;
13032;SDS011;6583;42.632;23.298;2024-03-25T12:47:18;3.00;;;2.80;;
13032;SDS011;6583;42.632;23.298;2024-03-25T12:49:44;3.17;;;2.87;;
13032;SDS011;6583;42.632;23.298;2024-03-25T12:52:10;3.40;;;3.10;;
13032;SDS011;6583;42.632;23.298;2024-03-25T12:54:36;3.53;;;3.10;;
13032;SDS011;6583;42.632;23.298;2024-03-25T12:57:03;3.07;;;2.87;;
13032;SDS011;6583;42.632;23.298;2024-03-25T12:59:29;3.57;;;3.27;;
13032;SDS011;6583;42.632;23.298;2024-03-25T13:01:56;3.90;;;3.50;;
13032;SDS011;6583;42.632;23.298;2024-03-25T13:04:21;3.90;;;3.20;;
13032;SDS011;6583;42.632;23.298;2024-03-25T13:06:47;2.90;;;2.70;;
13032;SDS011;6583;42.632;23.298;2024-03-25T13:09:13;3.13;;;2.83;;
13032;SDS011;6583;42.632;23.298;2024-03-25T13:11:39;3.63;;;3.30;;
13032;SDS011;6583;42.632;23.298;2024-03-25T13:14:06;3.47;;;3.20;;
13032;SDS011;6583;42.632;23.298;2024-03-25T13:16:31;3.80;;;3.40;;
13032;SDS011;6583;42.632;23.298;2024-03-25T13:18:57;3.30;;;3.00;;
13032;SDS011;6583;42.632;23.298;2024-03-25T13:21:23;3.93;;;3.53;;
13032;SDS011;6583;42.632;23.298;2024-03-25T13:23:49;3.87;;;3.20;;
13032;SDS011;6583;42.632;23.298;2024-03-25T13:26:15;3.87;;;3.47;;
13032;SDS011;6583;42.632;23.298;2024-03-25T13:28:41;3.57;;;3.27;;
13032;SDS011;6583;42.632;23.298;2024-03-25T13:31:08;3.60;;;3.30;;
13032;SDS011;6583;42.632;23.298;2024-03-25T13:33:34;4.20;;;3.20;;
13032;SDS011;6583;42.632;23.298;2024-03-25T13:35:59;3.53;;;3.23;;
13032;SDS011;6583;42.632;23.298;2024-03-25T13:38:25;3.50;;;3.20;;
13032;SDS011;6583;42.632;23.298;2024-03-25T13:40:51;3.30;;;3.00;;
13032;SDS011;6583;42.632;23.298;2024-03-25T13:43:17;4.53;;;3.10;;
13032;SDS011;6583;42.632;23.298;2024-03-25T13:45:46;3.10;;;2.80;;
13032;SDS011;6583;42.632;23.298;2024-03-25T13:48:14;3.70;;;2.77;;
13032;SDS011;6583;42.632;23.298;2024-03-25T13:50:40;3.50;;;2.60;;
13032;SDS011;6583;42.632;23.298;2024-03-25T13:53:06;2.87;;;2.67;;
13032;SDS011;6583;42.632;23.298;2024-03-25T13:55:32;3.20;;;2.83;;
13032;SDS011;6583;42.632;23.298;2024-03-25T13:57:58;3.00;;;2.67;;
13032;SDS011;6583;42.632;23.298;2024-03-25T14:00:24;2.63;;;2.43;;
13032;SDS011;6583;42.632;23.298;2024-03-25T14:02:50;2.53;;;2.27;;
13032;SDS011;6583;42.632;23.298;2024-03-25T14:05:17;2.23;;;2.03;;
13032;SDS011;6583;42.632;23.298;2024-03-25T14:07:42;2.23;;;2.00;;
13032;SDS011;6583;42.632;23.298;2024-03-25T14:10:08;2.23;;;2.03;;
13032;SDS011;6583;42.632;23.298;2024-03-25T14:12:34;2.13;;;1.80;;
13032;SDS011;6583;42.632;23.298;2024-03-25T14:15:00;1.80;;;1.70;;
13032;SDS011;6583;42.632;23.298;2024-03-25T14:17:26;1.87;;;1.77;;
13032;SDS011;6583;42.632;23.298;2024-03-25T14:19:53;2.17;;;1.93;;
13032;SDS011;6583;42.632;23.298;2024-03-25T14:22:22;2.63;;;1.80;;
13032;SDS011;6583;42.632;23.298;2024-03-25T14:24:48;2.57;;;1.70;;
13032;SDS011;6583;42.632;23.298;2024-03-25T14:27:13;3.37;;;1.97;;
13032;SDS011;6583;42.632;23.298;2024-03-25T14:29:39;2.33;;;1.70;;
13032;SDS011;6583;42.632;23.298;2024-03-25T14:32:05;2.63;;;1.50;;
13032;SDS011;6583;42.632;23.298;2024-03-25T14:34:31;1.50;;;1.40;;
13032;SDS011;6583;42.632;23.298;2024-03-25T14:36:57;1.70;;;1.60;;
13032;SDS011;6583;42.632;23.298;2024-03-25T14:39:24;2.87;;;1.33;;
13032;SDS011;6583;42.632;23.298;2024-03-25T14:41:50;2.10;;;1.53;;
13032;SDS011;6583;42.632;23.298;2024-03-25T14:44:16;2.83;;;1.70;;